sensor_id;sensor_type;location;lat;lon;timestamp;temperature;humidity
23497;DHT22;11925;48.122;11.560;2023-04-24T00:00:05;13.70;99.90
23497;DHT22;11925;48.122;11.560;2023-04-24T00:02:36;13.60;99.90
23497;DHT22;11925;48.122;11.560;2023-04-24T00:05:07;13.60;99.90
23497;DHT22;11925;48.122;11.560;2023-04-24T00:07:35;13.60;99.90
23497;DHT22;11925;48.122;11.560;2023-04-24T00:10:06;13.50;99.90
23497;DHT22;11925;48.122;11.560;2023-04-24T00:12:36;13.50;99.90
23497;DHT22;11925;48.122;11.560;2023-04-24T00:15:05;13.50;99.90
23497;DHT22;11925;48.122;11.560;2023-04-24T00:17:33;13.60;99.90
23497;DHT22;11925;48.122;11.560;2023-04-24T00:20:02;13.50;99.90
23497;DHT22;11925;48.122;11.560;2023-04-24T00:22:31;13.50;99.90
23497;DHT22;11925;48.122;11.560;2023-04-24T00:24:59;13.40;99.90
23497;DHT22;11925;48.122;11.560;2023-04-24T00:27:29;13.40;99.90
23497;DHT22;11925;48.122;11.560;2023-04-24T00:29:58;13.30;99.90
23497;DHT22;11925;48.122;11.560;2023-04-24T00:32:26;13.30;99.90
23497;DHT22;11925;48.122;11.560;2023-04-24T00:34:55;13.40;99.90
23497;DHT22;11925;48.122;11.560;2023-04-24T00:37:23;13.30;99.90
23497;DHT22;11925;48.122;11.560;2023-04-24T00:39:51;13.30;99.90
23497;DHT22;11925;48.122;11.560;2023-04-24T00:42:20;13.30;99.90
23497;DHT22;11925;48.122;11.560;2023-04-24T00:44:50;13.30;99.90
23497;DHT22;11925;48.122;11.560;2023-04-24T00:47:19;13.30;99.90
23497;DHT22;11925;48.122;11.560;2023-04-24T00:49:48;13.30;99.90
23497;DHT22;11925;48.122;11.560;2023-04-24T00:52:18;13.30;99.90
23497;DHT22;11925;48.122;11.560;2023-04-24T00:54:47;13.30;99.90
23497;DHT22;11925;48.122;11.560;2023-04-24T00:57:16;13.30;99.90
23497;DHT22;11925;48.122;11.560;2023-04-24T00:59:45;13.30;99.90
23497;DHT22;11925;48.122;11.560;2023-04-24T01:02:15;13.30;99.90
23497;DHT22;11925;48.122;11.560;2023-04-24T01:04:44;13.30;99.90
23497;DHT22;11925;48.122;11.560;2023-04-24T01:07:12;13.30;99.90
23497;DHT22;11925;48.122;11.560;2023-04-24T01:09:41;13.30;99.90
23497;DHT22;11925;48.122;11.560;2023-04-24T01:12:10;13.20;99.90
23497;DHT22;11925;48.122;11.560;2023-04-24T01:14:38;13.20;99.90
23497;DHT22;11925;48.122;11.560;2023-04-24T01:17:07;13.20;99.90
23497;DHT22;11925;48.122;11.560;2023-04-24T01:19:38;13.20;99.90
23497;DHT22;11925;48.122;11.560;2023-04-24T01:22:10;13.20;99.90
23497;DHT22;11925;48.122;11.560;2023-04-24T01:24:39;13.20;99.90
23497;DHT22;11925;48.122;11.560;2023-04-24T01:27:08;13.20;99.90
23497;DHT22;11925;48.122;11.560;2023-04-24T01:29:37;13.20;99.90
23497;DHT22;11925;48.122;11.560;2023-04-24T01:32:06;13.20;99.90
23497;DHT22;11925;48.122;11.560;2023-04-24T01:34:35;13.20;99.90
23497;DHT22;11925;48.122;11.560;2023-04-24T01:37:03;13.30;99.90
23497;DHT22;11925;48.122;11.560;2023-04-24T01:39:33;13.20;99.90
23497;DHT22;11925;48.122;11.560;2023-04-24T01:42:01;13.20;99.90
23497;DHT22;11925;48.122;11.560;2023-04-24T01:44:30;13.10;99.90
23497;DHT22;11925;48.122;11.560;2023-04-24T01:47:00;13.10;99.90
23497;DHT22;11925;48.122;11.560;2023-04-24T01:49:29;13.10;99.90
23497;DHT22;11925;48.122;11.560;2023-04-24T01:51:58;13.10;99.90
23497;DHT22;11925;48.122;11.560;2023-04-24T01:54:30;13.20;99.90
23497;DHT22;11925;48.122;11.560;2023-04-24T01:57:00;13.10;99.90
23497;DHT22;11925;48.122;11.560;2023-04-24T01:59:30;13.10;99.90
23497;DHT22;11925;48.122;11.560;2023-04-24T02:01:59;13.10;99.90
23497;DHT22;11925;48.122;11.560;2023-04-24T02:04:27;13.10;99.90
23497;DHT22;11925;48.122;11.560;2023-04-24T02:06:56;13.10;99.90
23497;DHT22;11925;48.122;11.560;2023-04-24T02:09:24;13.10;99.90
23497;DHT22;11925;48.122;11.560;2023-04-24T02:11:53;13.10;99.90
23497;DHT22;11925;48.122;11.560;2023-04-24T02:14:22;13.10;99.90
23497;DHT22;11925;48.122;11.560;2023-04-24T02:16:51;13.10;99.90
23497;DHT22;11925;48.122;11.560;2023-04-24T02:19:20;13.10;99.90
23497;DHT22;11925;48.122;11.560;2023-04-24T02:21:50;13.10;99.90
23497;DHT22;11925;48.122;11.560;2023-04-24T02:24:18;13.10;99.90
23497;DHT22;11925;48.122;11.560;2023-04-24T02:26:46;13.10;99.90
23497;DHT22;11925;48.122;11.560;2023-04-24T02:29:15;13.10;99.90
23497;DHT22;11925;48.122;11.560;2023-04-24T02:31:45;12.80;99.90
23497;DHT22;11925;48.122;11.560;2023-04-24T02:34:14;13.10;99.90
23497;DHT22;11925;48.122;11.560;2023-04-24T02:36:43;13.10;99.90
23497;DHT22;11925;48.122;11.560;2023-04-24T02:39:11;13.10;99.90
23497;DHT22;11925;48.122;11.560;2023-04-24T02:41:40;13.00;99.90
23497;DHT22;11925;48.122;11.560;2023-04-24T02:44:08;13.10;99.90
23497;DHT22;11925;48.122;11.560;2023-04-24T02:46:37;13.10;99.90
23497;DHT22;11925;48.122;11.560;2023-04-24T02:49:06;13.00;99.90
23497;DHT22;11925;48.122;11.560;2023-04-24T02:51:35;13.10;99.90
23497;DHT22;11925;48.122;11.560;2023-04-24T02:54:08;13.10;99.90
23497;DHT22;11925;48.122;11.560;2023-04-24T02:56:37;13.10;99.90
23497;DHT22;11925;48.122;11.560;2023-04-24T02:59:06;13.00;99.90
23497;DHT22;11925;48.122;11.560;2023-04-24T03:01:35;13.00;99.90
23497;DHT22;11925;48.122;11.560;2023-04-24T03:04:03;13.00;99.90
23497;DHT22;11925;48.122;11.560;2023-04-24T03:06:33;13.00;99.90
23497;DHT22;11925;48.122;11.560;2023-04-24T03:09:02;13.00;99.90
23497;DHT22;11925;48.122;11.560;2023-04-24T03:11:31;13.00;99.90
23497;DHT22;11925;48.122;11.560;2023-04-24T03:14:00;13.00;99.90
23497;DHT22;11925;48.122;11.560;2023-04-24T03:16:28;13.00;99.90
23497;DHT22;11925;48.122;11.560;2023-04-24T03:18:56;13.00;99.90
23497;DHT22;11925;48.122;11.560;2023-04-24T03:21:28;13.00;99.90
23497;DHT22;11925;48.122;11.560;2023-04-24T03:23:59;13.00;99.90
23497;DHT22;11925;48.122;11.560;2023-04-24T03:26:28;13.00;99.90
23497;DHT22;11925;48.122;11.560;2023-04-24T03:29:14;13.00;99.90
23497;DHT22;11925;48.122;11.560;2023-04-24T03:31:42;13.00;99.90
23497;DHT22;11925;48.122;11.560;2023-04-24T03:34:11;13.00;99.90
23497;DHT22;11925;48.122;11.560;2023-04-24T03:36:40;13.00;99.90
23497;DHT22;11925;48.122;11.560;2023-04-24T03:39:09;12.90;99.90
23497;DHT22;11925;48.122;11.560;2023-04-24T03:41:44;12.90;99.90
23497;DHT22;11925;48.122;11.560;2023-04-24T03:44:17;12.90;99.90
23497;DHT22;11925;48.122;11.560;2023-04-24T03:46:46;12.90;99.90
23497;DHT22;11925;48.122;11.560;2023-04-24T03:49:14;12.90;99.90
23497;DHT22;11925;48.122;11.560;2023-04-24T03:51:46;12.90;99.90
23497;DHT22;11925;48.122;11.560;2023-04-24T03:54:22;13.00;99.90
23497;DHT22;11925;48.122;11.560;2023-04-24T03:56:52;13.00;99.90
23497;DHT22;11925;48.122;11.560;2023-04-24T03:59:20;13.00;99.90
23497;DHT22;11925;48.122;11.560;2023-04-24T04:02:01;12.90;99.90
23497;DHT22;11925;48.122;11.560;2023-04-24T04:04:29;12.90;99.90
23497;DHT22;11925;48.122;11.560;2023-04-24T04:06:59;12.90;99.90
23497;DHT22;11925;48.122;11.560;2023-04-24T04:09:31;12.80;99.90
23497;DHT22;11925;48.122;11.560;2023-04-24T04:12:00;12.80;99.90
23497;DHT22;11925;48.122;11.560;2023-04-24T04:14:33;12.80;99.90
23497;DHT22;11925;48.122;11.560;2023-04-24T04:17:01;12.80;99.90
23497;DHT22;11925;48.122;11.560;2023-04-24T04:19:31;12.80;99.90
23497;DHT22;11925;48.122;11.560;2023-04-24T04:21:59;12.80;99.90
23497;DHT22;11925;48.122;11.560;2023-04-24T04:24:41;12.80;99.90
23497;DHT22;11925;48.122;11.560;2023-04-24T04:27:11;12.80;99.90
23497;DHT22;11925;48.122;11.560;2023-04-24T04:29:48;12.80;99.90
23497;DHT22;11925;48.122;11.560;2023-04-24T04:32:17;12.80;99.90
23497;DHT22;11925;48.122;11.560;2023-04-24T04:34:45;12.70;99.90
23497;DHT22;11925;48.122;11.560;2023-04-24T04:37:16;12.70;99.90
23497;DHT22;11925;48.122;11.560;2023-04-24T04:39:59;12.80;99.90
23497;DHT22;11925;48.122;11.560;2023-04-24T04:42:35;12.70;99.90
23497;DHT22;11925;48.122;11.560;2023-04-24T04:45:09;12.70;99.90
23497;DHT22;11925;48.122;11.560;2023-04-24T04:47:53;12.70;99.90
23497;DHT22;11925;48.122;11.560;2023-04-24T04:50:23;12.80;99.90
23497;DHT22;11925;48.122;11.560;2023-04-24T04:52:58;12.80;99.90
23497;DHT22;11925;48.122;11.560;2023-04-24T04:55:33;12.50;99.90
23497;DHT22;11925;48.122;11.560;2023-04-24T04:58:10;12.80;99.90
23497;DHT22;11925;48.122;11.560;2023-04-24T05:00:39;12.80;99.90
23497;DHT22;11925;48.122;11.560;2023-04-24T05:03:30;12.80;99.90
23497;DHT22;11925;48.122;11.560;2023-04-24T05:06:04;12.80;99.90
23497;DHT22;11925;48.122;11.560;2023-04-24T05:08:36;12.80;99.90
23497;DHT22;11925;48.122;11.560;2023-04-24T05:11:09;12.80;99.90
23497;DHT22;11925;48.122;11.560;2023-04-24T05:13:39;12.80;99.90
23497;DHT22;11925;48.122;11.560;2023-04-24T05:16:13;12.80;99.90
23497;DHT22;11925;48.122;11.560;2023-04-24T05:18:41;12.80;99.90
23497;DHT22;11925;48.122;11.560;2023-04-24T05:21:13;12.80;99.90
23497;DHT22;11925;48.122;11.560;2023-04-24T05:23:45;12.80;99.90
23497;DHT22;11925;48.122;11.560;2023-04-24T05:26:22;12.80;99.90
23497;DHT22;11925;48.122;11.560;2023-04-24T05:28:50;12.80;99.90
23497;DHT22;11925;48.122;11.560;2023-04-24T05:31:19;12.80;99.90
23497;DHT22;11925;48.122;11.560;2023-04-24T05:33:47;12.80;99.90
23497;DHT22;11925;48.122;11.560;2023-04-24T05:36:16;12.80;99.90
23497;DHT22;11925;48.122;11.560;2023-04-24T05:38:44;12.80;99.90
23497;DHT22;11925;48.122;11.560;2023-04-24T05:41:12;12.80;99.90
23497;DHT22;11925;48.122;11.560;2023-04-24T05:43:43;12.80;99.90
23497;DHT22;11925;48.122;11.560;2023-04-24T05:46:11;12.80;99.90
23497;DHT22;11925;48.122;11.560;2023-04-24T05:48:40;12.80;99.90
23497;DHT22;11925;48.122;11.560;2023-04-24T05:51:09;12.80;99.90
23497;DHT22;11925;48.122;11.560;2023-04-24T05:53:38;12.80;99.90
23497;DHT22;11925;48.122;11.560;2023-04-24T05:56:06;12.80;99.90
23497;DHT22;11925;48.122;11.560;2023-04-24T05:58:35;12.80;99.90
23497;DHT22;11925;48.122;11.560;2023-04-24T06:01:06;12.80;99.90
23497;DHT22;11925;48.122;11.560;2023-04-24T06:03:35;12.80;99.90
23497;DHT22;11925;48.122;11.560;2023-04-24T06:06:04;12.80;99.90
23497;DHT22;11925;48.122;11.560;2023-04-24T06:08:34;12.90;99.90
23497;DHT22;11925;48.122;11.560;2023-04-24T06:11:02;12.90;99.90
23497;DHT22;11925;48.122;11.560;2023-04-24T06:13:31;12.90;99.90
23497;DHT22;11925;48.122;11.560;2023-04-24T06:16:21;12.90;99.90
23497;DHT22;11925;48.122;11.560;2023-04-24T06:18:58;12.90;99.90
23497;DHT22;11925;48.122;11.560;2023-04-24T06:21:26;12.90;99.90
23497;DHT22;11925;48.122;11.560;2023-04-24T06:23:55;12.90;99.90
23497;DHT22;11925;48.122;11.560;2023-04-24T06:26:25;12.80;99.90
23497;DHT22;11925;48.122;11.560;2023-04-24T06:28:53;12.80;99.90
23497;DHT22;11925;48.122;11.560;2023-04-24T06:31:23;12.80;99.90
23497;DHT22;11925;48.122;11.560;2023-04-24T06:33:53;12.90;99.90
23497;DHT22;11925;48.122;11.560;2023-04-24T06:36:21;12.90;99.90
23497;DHT22;11925;48.122;11.560;2023-04-24T06:38:50;12.90;99.90
23497;DHT22;11925;48.122;11.560;2023-04-24T06:41:18;12.90;99.90
23497;DHT22;11925;48.122;11.560;2023-04-24T06:43:46;12.90;99.90
23497;DHT22;11925;48.122;11.560;2023-04-24T06:46:15;12.90;99.90
23497;DHT22;11925;48.122;11.560;2023-04-24T06:48:45;12.90;99.90
23497;DHT22;11925;48.122;11.560;2023-04-24T06:51:13;12.80;99.90
23497;DHT22;11925;48.122;11.560;2023-04-24T06:53:41;12.90;99.90
23497;DHT22;11925;48.122;11.560;2023-04-24T06:56:10;12.80;99.90
23497;DHT22;11925;48.122;11.560;2023-04-24T06:58:38;12.80;99.90
23497;DHT22;11925;48.122;11.560;2023-04-24T07:01:06;12.90;99.90
23497;DHT22;11925;48.122;11.560;2023-04-24T07:03:35;12.90;99.90
23497;DHT22;11925;48.122;11.560;2023-04-24T07:06:05;12.80;99.90
23497;DHT22;11925;48.122;11.560;2023-04-24T07:08:34;12.80;99.90
23497;DHT22;11925;48.122;11.560;2023-04-24T07:11:02;12.80;99.90
23497;DHT22;11925;48.122;11.560;2023-04-24T07:13:31;12.80;99.90
23497;DHT22;11925;48.122;11.560;2023-04-24T07:15:59;12.80;99.90
23497;DHT22;11925;48.122;11.560;2023-04-24T07:18:27;12.80;99.90
23497;DHT22;11925;48.122;11.560;2023-04-24T07:20:56;12.80;99.90
23497;DHT22;11925;48.122;11.560;2023-04-24T07:23:25;12.80;99.90
23497;DHT22;11925;48.122;11.560;2023-04-24T07:25:54;12.80;99.90
23497;DHT22;11925;48.122;11.560;2023-04-24T07:28:22;12.80;99.90
23497;DHT22;11925;48.122;11.560;2023-04-24T07:30:51;12.80;99.90
23497;DHT22;11925;48.122;11.560;2023-04-24T07:33:21;12.80;99.90
23497;DHT22;11925;48.122;11.560;2023-04-24T07:35:49;12.80;99.90
23497;DHT22;11925;48.122;11.560;2023-04-24T07:38:18;12.80;99.90
23497;DHT22;11925;48.122;11.560;2023-04-24T07:40:49;12.80;99.90
23497;DHT22;11925;48.122;11.560;2023-04-24T07:43:19;12.80;99.90
23497;DHT22;11925;48.122;11.560;2023-04-24T07:45:48;12.80;99.90
23497;DHT22;11925;48.122;11.560;2023-04-24T07:48:16;12.80;99.90
23497;DHT22;11925;48.122;11.560;2023-04-24T07:50:45;12.80;99.90
23497;DHT22;11925;48.122;11.560;2023-04-24T07:53:13;12.80;99.90
23497;DHT22;11925;48.122;11.560;2023-04-24T07:55:42;12.80;99.90
23497;DHT22;11925;48.122;11.560;2023-04-24T07:58:11;12.80;99.90
23497;DHT22;11925;48.122;11.560;2023-04-24T08:00:40;12.80;99.90
23497;DHT22;11925;48.122;11.560;2023-04-24T08:03:08;12.80;99.90
23497;DHT22;11925;48.122;11.560;2023-04-24T08:05:37;12.80;99.90
23497;DHT22;11925;48.122;11.560;2023-04-24T08:08:07;12.80;99.90
23497;DHT22;11925;48.122;11.560;2023-04-24T08:10:35;12.80;99.90
23497;DHT22;11925;48.122;11.560;2023-04-24T08:13:04;12.80;99.90
23497;DHT22;11925;48.122;11.560;2023-04-24T08:15:34;12.80;99.90
23497;DHT22;11925;48.122;11.560;2023-04-24T08:18:02;12.80;99.90
23497;DHT22;11925;48.122;11.560;2023-04-24T08:20:30;12.80;99.90
23497;DHT22;11925;48.122;11.560;2023-04-24T08:22:59;12.80;99.90
23497;DHT22;11925;48.122;11.560;2023-04-24T08:25:27;12.80;99.90
23497;DHT22;11925;48.122;11.560;2023-04-24T08:27:55;12.80;99.90
23497;DHT22;11925;48.122;11.560;2023-04-24T08:30:24;12.80;99.90
23497;DHT22;11925;48.122;11.560;2023-04-24T08:32:53;12.80;99.90
23497;DHT22;11925;48.122;11.560;2023-04-24T08:35:22;12.70;99.90
23497;DHT22;11925;48.122;11.560;2023-04-24T08:37:51;12.80;99.90
23497;DHT22;11925;48.122;11.560;2023-04-24T08:40:23;12.80;99.90
23497;DHT22;11925;48.122;11.560;2023-04-24T08:42:55;12.70;99.90
23497;DHT22;11925;48.122;11.560;2023-04-24T08:45:24;12.70;99.90
23497;DHT22;11925;48.122;11.560;2023-04-24T08:47:54;12.70;99.90
23497;DHT22;11925;48.122;11.560;2023-04-24T08:50:22;12.70;99.90
23497;DHT22;11925;48.122;11.560;2023-04-24T08:52:51;12.70;99.90
23497;DHT22;11925;48.122;11.560;2023-04-24T08:55:21;12.70;99.90
23497;DHT22;11925;48.122;11.560;2023-04-24T08:57:51;12.70;99.90
23497;DHT22;11925;48.122;11.560;2023-04-24T09:03:02;12.70;99.90
23497;DHT22;11925;48.122;11.560;2023-04-24T09:05:32;12.70;99.90
23497;DHT22;11925;48.122;11.560;2023-04-24T09:08:02;12.70;99.90
23497;DHT22;11925;48.122;11.560;2023-04-24T09:10:32;12.70;99.90
23497;DHT22;11925;48.122;11.560;2023-04-24T09:13:02;12.70;99.90
23497;DHT22;11925;48.122;11.560;2023-04-24T09:15:32;12.70;99.90
23497;DHT22;11925;48.122;11.560;2023-04-24T09:18:02;12.60;99.90
23497;DHT22;11925;48.122;11.560;2023-04-24T09:20:31;12.60;99.90
23497;DHT22;11925;48.122;11.560;2023-04-24T09:28:18;12.70;99.90
23497;DHT22;11925;48.122;11.560;2023-04-24T09:30:46;12.70;99.90
23497;DHT22;11925;48.122;11.560;2023-04-24T09:33:29;12.70;99.90
23497;DHT22;11925;48.122;11.560;2023-04-24T09:35:56;12.60;99.90
23497;DHT22;11925;48.122;11.560;2023-04-24T09:38:33;12.60;99.90
23497;DHT22;11925;48.122;11.560;2023-04-24T09:41:05;12.70;99.90
23497;DHT22;11925;48.122;11.560;2023-04-24T09:43:35;12.70;99.90
23497;DHT22;11925;48.122;11.560;2023-04-24T09:46:08;12.70;99.90
23497;DHT22;11925;48.122;11.560;2023-04-24T09:48:37;12.60;99.90
23497;DHT22;11925;48.122;11.560;2023-04-24T09:51:07;12.60;99.90
23497;DHT22;11925;48.122;11.560;2023-04-24T09:53:38;12.60;99.90
23497;DHT22;11925;48.122;11.560;2023-04-24T09:56:12;12.70;99.90
23497;DHT22;11925;48.122;11.560;2023-04-24T09:58:41;12.70;99.90
23497;DHT22;11925;48.122;11.560;2023-04-24T10:01:10;12.70;99.90
23497;DHT22;11925;48.122;11.560;2023-04-24T10:03:38;12.70;99.90
23497;DHT22;11925;48.122;11.560;2023-04-24T10:06:12;12.70;99.90
23497;DHT22;11925;48.122;11.560;2023-04-24T10:08:41;12.70;99.90
23497;DHT22;11925;48.122;11.560;2023-04-24T10:11:10;12.70;99.90
23497;DHT22;11925;48.122;11.560;2023-04-24T10:13:41;12.70;99.90
23497;DHT22;11925;48.122;11.560;2023-04-24T10:16:10;12.70;99.90
23497;DHT22;11925;48.122;11.560;2023-04-24T10:18:39;12.70;99.90
23497;DHT22;11925;48.122;11.560;2023-04-24T10:21:07;12.70;99.90
23497;DHT22;11925;48.122;11.560;2023-04-24T10:23:36;12.80;99.90
23497;DHT22;11925;48.122;11.560;2023-04-24T10:26:05;12.80;99.90
23497;DHT22;11925;48.122;11.560;2023-04-24T10:28:34;12.80;99.90
23497;DHT22;11925;48.122;11.560;2023-04-24T10:31:06;12.80;99.90
23497;DHT22;11925;48.122;11.560;2023-04-24T10:33:35;12.80;99.90
23497;DHT22;11925;48.122;11.560;2023-04-24T10:36:04;12.80;99.90
23497;DHT22;11925;48.122;11.560;2023-04-24T10:38:34;12.80;99.70
23497;DHT22;11925;48.122;11.560;2023-04-24T10:41:10;12.80;99.50
23497;DHT22;11925;48.122;11.560;2023-04-24T10:43:43;12.80;99.50
23497;DHT22;11925;48.122;11.560;2023-04-24T10:46:19;12.80;99.30
23497;DHT22;11925;48.122;11.560;2023-04-24T10:48:53;12.80;99.30
23497;DHT22;11925;48.122;11.560;2023-04-24T10:51:23;12.80;99.30
23497;DHT22;11925;48.122;11.560;2023-04-24T10:53:51;12.80;99.60
23497;DHT22;11925;48.122;11.560;2023-04-24T10:56:21;12.80;99.90
23497;DHT22;11925;48.122;11.560;2023-04-24T10:58:51;12.70;99.90
23497;DHT22;11925;48.122;11.560;2023-04-24T11:01:27;12.70;99.90
23497;DHT22;11925;48.122;11.560;2023-04-24T11:03:57;12.60;99.90
23497;DHT22;11925;48.122;11.560;2023-04-24T11:06:29;12.60;99.90
23497;DHT22;11925;48.122;11.560;2023-04-24T11:09:03;12.70;99.90
23497;DHT22;11925;48.122;11.560;2023-04-24T11:11:34;12.70;99.90
23497;DHT22;11925;48.122;11.560;2023-04-24T11:14:04;12.70;99.90
23497;DHT22;11925;48.122;11.560;2023-04-24T11:16:38;12.70;99.90
23497;DHT22;11925;48.122;11.560;2023-04-24T11:19:08;12.70;99.90
23497;DHT22;11925;48.122;11.560;2023-04-24T11:21:41;12.70;99.90
23497;DHT22;11925;48.122;11.560;2023-04-24T11:24:30;12.70;99.90
23497;DHT22;11925;48.122;11.560;2023-04-24T11:27:05;12.80;99.90
23497;DHT22;11925;48.122;11.560;2023-04-24T11:29:44;12.80;99.90
23497;DHT22;11925;48.122;11.560;2023-04-24T11:32:25;12.80;99.90
23497;DHT22;11925;48.122;11.560;2023-04-24T11:34:55;12.80;99.90
23497;DHT22;11925;48.122;11.560;2023-04-24T11:37:26;12.80;99.90
23497;DHT22;11925;48.122;11.560;2023-04-24T11:39:56;12.90;99.90
23497;DHT22;11925;48.122;11.560;2023-04-24T11:42:25;12.90;99.90
23497;DHT22;11925;48.122;11.560;2023-04-24T11:44:54;12.90;99.90
23497;DHT22;11925;48.122;11.560;2023-04-24T11:47:31;12.90;99.90
23497;DHT22;11925;48.122;11.560;2023-04-24T11:50:01;12.90;99.90
23497;DHT22;11925;48.122;11.560;2023-04-24T11:52:30;12.90;99.90
23497;DHT22;11925;48.122;11.560;2023-04-24T11:54:59;12.90;99.90
23497;DHT22;11925;48.122;11.560;2023-04-24T11:57:28;12.90;99.90
23497;DHT22;11925;48.122;11.560;2023-04-24T12:00:00;12.90;99.90
23497;DHT22;11925;48.122;11.560;2023-04-24T12:02:39;12.80;99.90
23497;DHT22;11925;48.122;11.560;2023-04-24T12:05:08;12.80;99.90
23497;DHT22;11925;48.122;11.560;2023-04-24T12:07:41;12.80;99.90
23497;DHT22;11925;48.122;11.560;2023-04-24T12:10:10;12.80;99.90
23497;DHT22;11925;48.122;11.560;2023-04-24T12:12:39;12.80;99.70
23497;DHT22;11925;48.122;11.560;2023-04-24T12:15:08;12.80;99.50
23497;DHT22;11925;48.122;11.560;2023-04-24T12:17:42;12.90;99.50
23497;DHT22;11925;48.122;11.560;2023-04-24T12:20:12;12.90;99.50
23497;DHT22;11925;48.122;11.560;2023-04-24T12:22:45;12.90;99.30
23497;DHT22;11925;48.122;11.560;2023-04-24T12:25:17;12.80;98.70
23497;DHT22;11925;48.122;11.560;2023-04-24T12:27:52;12.90;98.70
23497;DHT22;11925;48.122;11.560;2023-04-24T12:30:21;12.80;98.30
23497;DHT22;11925;48.122;11.560;2023-04-24T12:32:57;12.80;98.10
23497;DHT22;11925;48.122;11.560;2023-04-24T12:35:28;12.80;98.00
23497;DHT22;11925;48.122;11.560;2023-04-24T12:38:05;12.90;98.20
23497;DHT22;11925;48.122;11.560;2023-04-24T12:40:34;12.90;98.10
23497;DHT22;11925;48.122;11.560;2023-04-24T12:43:12;12.90;98.00
23497;DHT22;11925;48.122;11.560;2023-04-24T12:45:41;12.90;98.00
23497;DHT22;11925;48.122;11.560;2023-04-24T12:48:10;13.00;97.60
23497;DHT22;11925;48.122;11.560;2023-04-24T12:50:41;13.00;97.60
23497;DHT22;11925;48.122;11.560;2023-04-24T12:53:12;13.00;96.20
23497;DHT22;11925;48.122;11.560;2023-04-24T12:55:41;13.00;96.90
23497;DHT22;11925;48.122;11.560;2023-04-24T12:58:09;13.00;96.00
23497;DHT22;11925;48.122;11.560;2023-04-24T13:00:38;13.00;95.80
23497;DHT22;11925;48.122;11.560;2023-04-24T13:03:07;13.00;95.50
23497;DHT22;11925;48.122;11.560;2023-04-24T13:05:37;12.90;96.40
23497;DHT22;11925;48.122;11.560;2023-04-24T13:08:05;13.00;97.30
23497;DHT22;11925;48.122;11.560;2023-04-24T13:10:34;13.00;97.60
23497;DHT22;11925;48.122;11.560;2023-04-24T13:13:03;13.00;98.20
23497;DHT22;11925;48.122;11.560;2023-04-24T13:15:31;13.00;97.90
23497;DHT22;11925;48.122;11.560;2023-04-24T13:17:59;13.00;97.90
23497;DHT22;11925;48.122;11.560;2023-04-24T13:20:28;13.00;98.00
23497;DHT22;11925;48.122;11.560;2023-04-24T13:22:57;13.00;98.00
23497;DHT22;11925;48.122;11.560;2023-04-24T13:25:27;13.00;98.20
23497;DHT22;11925;48.122;11.560;2023-04-24T13:27:56;13.00;97.50
23497;DHT22;11925;48.122;11.560;2023-04-24T13:30:25;13.00;97.30
23497;DHT22;11925;48.122;11.560;2023-04-24T13:32:53;13.00;96.40
23497;DHT22;11925;48.122;11.560;2023-04-24T13:35:21;12.90;96.10
23497;DHT22;11925;48.122;11.560;2023-04-24T13:37:50;12.90;96.20
23497;DHT22;11925;48.122;11.560;2023-04-24T13:40:20;13.00;95.70
23497;DHT22;11925;48.122;11.560;2023-04-24T13:42:48;13.00;95.60
23497;DHT22;11925;48.122;11.560;2023-04-24T13:45:17;13.10;95.90
23497;DHT22;11925;48.122;11.560;2023-04-24T13:47:51;13.10;96.10
23497;DHT22;11925;48.122;11.560;2023-04-24T13:50:21;13.10;95.80
23497;DHT22;11925;48.122;11.560;2023-04-24T13:52:49;13.10;96.10
23497;DHT22;11925;48.122;11.560;2023-04-24T13:55:17;13.10;95.40
23497;DHT22;11925;48.122;11.560;2023-04-24T13:57:47;13.10;95.80
23497;DHT22;11925;48.122;11.560;2023-04-24T14:00:17;13.10;96.00
23497;DHT22;11925;48.122;11.560;2023-04-24T14:02:46;13.10;95.60
23497;DHT22;11925;48.122;11.560;2023-04-24T14:05:14;13.10;95.40
23497;DHT22;11925;48.122;11.560;2023-04-24T14:07:43;13.10;95.70
23497;DHT22;11925;48.122;11.560;2023-04-24T14:10:11;13.10;96.30
23497;DHT22;11925;48.122;11.560;2023-04-24T14:12:40;13.20;96.30
23497;DHT22;11925;48.122;11.560;2023-04-24T14:15:10;13.20;96.10
23497;DHT22;11925;48.122;11.560;2023-04-24T14:17:40;13.20;96.30
23497;DHT22;11925;48.122;11.560;2023-04-24T14:20:09;13.10;96.20
23497;DHT22;11925;48.122;11.560;2023-04-24T14:22:37;13.10;95.80
23497;DHT22;11925;48.122;11.560;2023-04-24T14:25:07;13.10;95.10
23497;DHT22;11925;48.122;11.560;2023-04-24T14:27:35;13.10;94.90
23497;DHT22;11925;48.122;11.560;2023-04-24T14:30:04;13.10;94.20
23497;DHT22;11925;48.122;11.560;2023-04-24T14:32:34;13.10;93.40
23497;DHT22;11925;48.122;11.560;2023-04-24T14:35:04;13.20;93.10
23497;DHT22;11925;48.122;11.560;2023-04-24T14:37:33;13.20;92.20
23497;DHT22;11925;48.122;11.560;2023-04-24T14:40:01;13.20;92.10
23497;DHT22;11925;48.122;11.560;2023-04-24T14:42:51;13.10;91.10
23497;DHT22;11925;48.122;11.560;2023-04-24T14:45:19;13.10;91.40
23497;DHT22;11925;48.122;11.560;2023-04-24T14:47:49;13.10;91.30
23497;DHT22;11925;48.122;11.560;2023-04-24T14:50:20;13.20;90.80
23497;DHT22;11925;48.122;11.560;2023-04-24T14:52:50;13.10;90.20
23497;DHT22;11925;48.122;11.560;2023-04-24T14:55:19;13.10;90.00
23497;DHT22;11925;48.122;11.560;2023-04-24T14:57:47;13.10;90.40
23497;DHT22;11925;48.122;11.560;2023-04-24T15:00:16;13.10;89.70
23497;DHT22;11925;48.122;11.560;2023-04-24T15:02:45;13.10;90.70
23497;DHT22;11925;48.122;11.560;2023-04-24T15:05:15;13.00;89.50
23497;DHT22;11925;48.122;11.560;2023-04-24T15:07:44;13.10;90.00
23497;DHT22;11925;48.122;11.560;2023-04-24T15:10:12;13.10;90.10
23497;DHT22;11925;48.122;11.560;2023-04-24T15:12:41;13.10;88.80
23497;DHT22;11925;48.122;11.560;2023-04-24T15:15:09;13.10;89.90
23497;DHT22;11925;48.122;11.560;2023-04-24T15:17:38;13.10;88.60
23497;DHT22;11925;48.122;11.560;2023-04-24T15:20:07;13.10;89.30
23497;DHT22;11925;48.122;11.560;2023-04-24T15:22:37;13.10;88.60
23497;DHT22;11925;48.122;11.560;2023-04-24T15:25:06;13.10;87.50
23497;DHT22;11925;48.122;11.560;2023-04-24T15:27:42;13.00;87.20
23497;DHT22;11925;48.122;11.560;2023-04-24T15:30:11;13.00;86.70
23497;DHT22;11925;48.122;11.560;2023-04-24T15:32:40;13.00;84.70
23497;DHT22;11925;48.122;11.560;2023-04-24T15:35:09;13.00;86.10
23497;DHT22;11925;48.122;11.560;2023-04-24T15:37:38;13.10;85.60
23497;DHT22;11925;48.122;11.560;2023-04-24T15:40:08;13.00;85.40